sensor_id;sensor_type;location;lat;lon;timestamp;pressure;altitude;pressure_sealevel;temperature;humidity
61205;BME280;47068;55.780;37.520;2023-03-19T00:01:05;101331.50;;;0.60;38.99
61205;BME280;47068;55.780;37.520;2023-03-19T00:03:31;101296.56;;;0.39;38.96
61205;BME280;47068;55.780;37.520;2023-03-19T00:05:56;101316.16;;;0.51;39.13
61205;BME280;47068;55.780;37.520;2023-03-19T00:08:22;101320.38;;;0.55;39.36
61205;BME280;47068;55.780;37.520;2023-03-19T00:10:48;101332.09;;;0.45;39.79
61205;BME280;47068;55.780;37.520;2023-03-19T00:13:14;101305.13;;;0.43;39.26
61205;BME280;47068;55.780;37.520;2023-03-19T00:15:39;101315.13;;;0.55;39.58
61205;BME280;47068;55.780;37.520;2023-03-19T00:18:05;101312.97;;;0.64;39.37
61205;BME280;47068;55.780;37.520;2023-03-19T00:20:31;101278.03;;;0.44;39.35
61205;BME280;47068;55.780;37.520;2023-03-19T00:22:57;101313.97;;;0.62;39.33
61205;BME280;47068;55.780;37.520;2023-03-19T00:25:22;101309.09;;;0.53;39.84
61205;BME280;47068;55.780;37.520;2023-03-19T00:27:48;101297.41;;;0.39;39.76
61205;BME280;47068;55.780;37.520;2023-03-19T00:30:14;101295.19;;;0.29;40.15
61205;BME280;47068;55.780;37.520;2023-03-19T00:32:40;101264.94;;;0.00;40.46
61205;BME280;47068;55.780;37.520;2023-03-19T00:35:06;101298.84;;;0.25;40.33
61205;BME280;47068;55.780;37.520;2023-03-19T00:37:34;101308.38;;;0.27;40.69
61205;BME280;47068;55.780;37.520;2023-03-19T00:40:00;101302.88;;;0.33;40.30
61205;BME280;47068;55.780;37.520;2023-03-19T00:42:26;101263.56;;;0.13;40.61
61205;BME280;47068;55.780;37.520;2023-03-19T00:44:51;101301.97;;;0.34;40.49
61205;BME280;47068;55.780;37.520;2023-03-19T00:47:17;101295.94;;;0.32;40.47
61205;BME280;47068;55.780;37.520;2023-03-19T00:49:43;101292.72;;;0.26;40.77
61205;BME280;47068;55.780;37.520;2023-03-19T00:52:08;101301.09;;;0.12;41.22
61205;BME280;47068;55.780;37.520;2023-03-19T00:54:34;101285.69;;;0.05;41.12
61205;BME280;47068;55.780;37.520;2023-03-19T00:56:59;101288.97;;;0.10;41.22
61205;BME280;47068;55.780;37.520;2023-03-19T00:59:25;101298.09;;;0.21;41.34
61205;BME280;47068;55.780;37.520;2023-03-19T01:01:51;101294.34;;;0.28;41.36
61205;BME280;47068;55.780;37.520;2023-03-19T01:04:16;101272.91;;;0.19;41.29
61205;BME280;47068;55.780;37.520;2023-03-19T01:06:43;101257.50;;;0.11;41.17
61205;BME280;47068;55.780;37.520;2023-03-19T01:09:09;101292.41;;;0.33;41.11
61205;BME280;47068;55.780;37.520;2023-03-19T01:11:35;101295.69;;;0.38;41.36
61205;BME280;47068;55.780;37.520;2023-03-19T01:14:01;101114.00;;;-0.65;41.51
61205;BME280;47068;55.780;37.520;2023-03-19T01:16:27;101263.41;;;0.16;41.89
61205;BME280;47068;55.780;37.520;2023-03-19T01:18:52;101284.56;;;0.33;41.51
61205;BME280;47068;55.780;37.520;2023-03-19T01:21:18;101288.09;;;0.32;41.67
61205;BME280;47068;55.780;37.520;2023-03-19T01:23:44;101243.81;;;0.05;41.91
61205;BME280;47068;55.780;37.520;2023-03-19T01:26:09;101282.19;;;0.27;42.08
61205;BME280;47068;55.780;37.520;2023-03-19T01:28:35;101284.00;;;0.25;42.45
61205;BME280;47068;55.780;37.520;2023-03-19T01:31:05;101275.88;;;0.10;42.60
61205;BME280;47068;55.780;37.520;2023-03-19T01:33:31;101278.31;;;-0.08;42.68
61205;BME280;47068;55.780;37.520;2023-03-19T01:35:57;101278.34;;;-0.09;43.14
61205;BME280;47068;55.780;37.520;2023-03-19T01:38:23;101287.69;;;-0.02;43.07
61205;BME280;47068;55.780;37.520;2023-03-19T01:40:49;101272.88;;;-0.03;42.65
61205;BME280;47068;55.780;37.520;2023-03-19T01:43:20;101274.38;;;0.04;42.67
61205;BME280;47068;55.780;37.520;2023-03-19T01:45:49;101268.22;;;0.05;42.89
61205;BME280;47068;55.780;37.520;2023-03-19T01:48:36;101270.47;;;0.14;42.60
61205;BME280;47068;55.780;37.520;2023-03-19T01:51:04;101251.53;;;-0.14;42.74
61205;BME280;47068;55.780;37.520;2023-03-19T01:53:32;101269.47;;;-0.05;43.04
61205;BME280;47068;55.780;37.520;2023-03-19T01:56:21;101265.94;;;-0.04;42.98
61205;BME280;47068;55.780;37.520;2023-03-19T01:58:50;101262.41;;;-0.03;43.53
61205;BME280;47068;55.780;37.520;2023-03-19T02:01:17;101261.34;;;0.03;42.75
61205;BME280;47068;55.780;37.520;2023-03-19T02:03:43;101256.06;;;-0.19;43.72
61205;BME280;47068;55.780;37.520;2023-03-19T02:06:10;101259.47;;;-0.17;43.60
61205;BME280;47068;55.780;37.520;2023-03-19T02:08:38;101252.78;;;-0.24;43.76
61205;BME280;47068;55.780;37.520;2023-03-19T02:11:05;101252.47;;;-0.40;44.13
61205;BME280;47068;55.780;37.520;2023-03-19T02:13:31;101250.44;;;-0.32;43.96
61205;BME280;47068;55.780;37.520;2023-03-19T02:15:58;101243.69;;;-0.37;44.46
61205;BME280;47068;55.780;37.520;2023-03-19T02:18:23;101240.25;;;-0.40;44.04
61205;BME280;47068;55.780;37.520;2023-03-19T02:21:14;101237.53;;;-0.36;44.27
61205;BME280;47068;55.780;37.520;2023-03-19T02:23:42;101232.19;;;-0.33;44.14
61205;BME280;47068;55.780;37.520;2023-03-19T02:26:12;101228.28;;;-0.45;44.34
61205;BME280;47068;55.780;37.520;2023-03-19T02:28:47;101201.97;;;-0.64;44.48
61205;BME280;47068;55.780;37.520;2023-03-19T02:31:13;101232.41;;;-0.40;44.38
61205;BME280;47068;55.780;37.520;2023-03-19T02:33:39;101235.84;;;-0.37;44.50
61205;BME280;47068;55.780;37.520;2023-03-19T02:36:08;101234.94;;;-0.36;44.41
61205;BME280;47068;55.780;37.520;2023-03-19T02:38:35;101235.94;;;-0.41;44.57
61205;BME280;47068;55.780;37.520;2023-03-19T02:41:06;101232.69;;;-0.47;44.83
61205;BME280;47068;55.780;37.520;2023-03-19T02:43:35;101230.38;;;-0.55;44.90
61205;BME280;47068;55.780;37.520;2023-03-19T02:46:18;101230.94;;;-0.47;45.07
61205;BME280;47068;55.780;37.520;2023-03-19T02:48:44;101231.06;;;-0.50;45.24
61205;BME280;47068;55.780;37.520;2023-03-19T02:51:09;101194.34;;;-0.70;45.14
61205;BME280;47068;55.780;37.520;2023-03-19T02:53:34;101205.34;;;-0.62;44.91
61205;BME280;47068;55.780;37.520;2023-03-19T02:56:00;101233.31;;;-0.41;45.07
61205;BME280;47068;55.780;37.520;2023-03-19T02:58:26;101220.66;;;-0.51;44.94
61205;BME280;47068;55.780;37.520;2023-03-19T03:00:51;101225.72;;;-0.47;45.36
61205;BME280;47068;55.780;37.520;2023-03-19T03:03:17;101222.75;;;-0.61;45.45
61205;BME280;47068;55.780;37.520;2023-03-19T03:05:42;101187.06;;;-0.85;45.75
61205;BME280;47068;55.780;37.520;2023-03-19T03:08:08;101214.97;;;-0.62;45.61
61205;BME280;47068;55.780;37.520;2023-03-19T03:10:36;101215.13;;;-0.67;45.76
61205;BME280;47068;55.780;37.520;2023-03-19T03:13:01;101217.53;;;-0.61;45.65
61205;BME280;47068;55.780;37.520;2023-03-19T03:15:27;101210.38;;;-0.56;45.71
61205;BME280;47068;55.780;37.520;2023-03-19T03:17:55;101194.13;;;-0.64;45.82
61205;BME280;47068;55.780;37.520;2023-03-19T03:20:21;101208.72;;;-0.58;45.47
61205;BME280;47068;55.780;37.520;2023-03-19T03:22:46;101205.25;;;-0.59;45.59
61205;BME280;47068;55.780;37.520;2023-03-19T03:25:13;101204.34;;;-0.58;45.97
61205;BME280;47068;55.780;37.520;2023-03-19T03:27:38;101203.53;;;-0.60;45.94
61205;BME280;47068;55.780;37.520;2023-03-19T03:30:06;101166.13;;;-0.84;45.83
61205;BME280;47068;55.780;37.520;2023-03-19T03:32:32;101209.44;;;-0.55;46.18
61205;BME280;47068;55.780;37.520;2023-03-19T03:34:58;101142.06;;;-0.93;45.83
61205;BME280;47068;55.780;37.520;2023-03-19T03:37:23;101198.88;;;-0.52;45.76
61205;BME280;47068;55.780;37.520;2023-03-19T03:39:48;101208.09;;;-0.42;45.51
61205;BME280;47068;55.780;37.520;2023-03-19T03:42:23;101176.03;;;-0.47;45.44
61205;BME280;47068;55.780;37.520;2023-03-19T03:44:48;101187.06;;;-0.38;45.56
61205;BME280;47068;55.780;37.520;2023-03-19T03:47:14;101192.72;;;-0.27;44.95
61205;BME280;47068;55.780;37.520;2023-03-19T03:49:40;101200.34;;;-0.21;45.31
61205;BME280;47068;55.780;37.520;2023-03-19T03:52:06;101192.91;;;-0.32;45.51
61205;BME280;47068;55.780;37.520;2023-03-19T03:54:33;101199.59;;;-0.25;45.28
61205;BME280;47068;55.780;37.520;2023-03-19T03:56:58;101203.66;;;-0.40;45.76
61205;BME280;47068;55.780;37.520;2023-03-19T03:59:24;101195.31;;;-0.49;46.12
61205;BME280;47068;55.780;37.520;2023-03-19T04:01:50;101198.31;;;-0.60;46.25
61205;BME280;47068;55.780;37.520;2023-03-19T04:04:35;101202.63;;;-0.59;46.32
61205;BME280;47068;55.780;37.520;2023-03-19T04:07:01;101199.22;;;-0.61;46.49
61205;BME280;47068;55.780;37.520;2023-03-19T04:09:26;101184.50;;;-0.87;46.59
61205;BME280;47068;55.780;37.520;2023-03-19T04:11:52;101193.41;;;-0.69;46.22
61205;BME280;47068;55.780;37.520;2023-03-19T04:14:17;101188.31;;;-0.72;46.60
61205;BME280;47068;55.780;37.520;2023-03-19T04:16:43;101197.75;;;-0.68;46.69
61205;BME280;47068;55.780;37.520;2023-03-19T04:19:08;101193.31;;;-0.66;46.30
61205;BME280;47068;55.780;37.520;2023-03-19T04:21:34;101186.28;;;-0.64;46.46
61205;BME280;47068;55.780;37.520;2023-03-19T04:23:59;101186.84;;;-0.56;46.50
61205;BME280;47068;55.780;37.520;2023-03-19T04:26:26;101171.94;;;-0.54;46.26
61205;BME280;47068;55.780;37.520;2023-03-19T04:29:13;101181.22;;;-0.45;46.02
61205;BME280;47068;55.780;37.520;2023-03-19T04:31:38;101179.69;;;-0.51;46.39
61205;BME280;47068;55.780;37.520;2023-03-19T04:34:03;101171.84;;;-0.51;46.05
61205;BME280;47068;55.780;37.520;2023-03-19T04:36:29;101145.41;;;-0.66;46.38
61205;BME280;47068;55.780;37.520;2023-03-19T04:38:55;101182.69;;;-0.38;46.20
61205;BME280;47068;55.780;37.520;2023-03-19T04:41:21;101170.41;;;-0.36;45.96
61205;BME280;47068;55.780;37.520;2023-03-19T04:43:46;101177.81;;;-0.25;45.65
61205;BME280;47068;55.780;37.520;2023-03-19T04:46:12;101172.94;;;-0.34;46.25
61205;BME280;47068;55.780;37.520;2023-03-19T04:48:37;101181.47;;;-0.29;46.12
61205;BME280;47068;55.780;37.520;2023-03-19T04:51:04;101179.28;;;-0.18;45.94
61205;BME280;47068;55.780;37.520;2023-03-19T04:53:42;101180.66;;;-0.08;45.88
61205;BME280;47068;55.780;37.520;2023-03-19T04:56:08;101171.75;;;-0.04;45.90
61205;BME280;47068;55.780;37.520;2023-03-19T04:58:34;101100.44;;;-0.53;45.52
61205;BME280;47068;55.780;37.520;2023-03-19T05:01:00;101193.97;;;0.08;46.28
61205;BME280;47068;55.780;37.520;2023-03-19T05:03:25;101139.34;;;0.00;46.08
61205;BME280;47068;55.780;37.520;2023-03-19T05:05:52;101166.22;;;0.25;45.44
61205;BME280;47068;55.780;37.520;2023-03-19T05:08:18;101163.44;;;0.28;45.14
61205;BME280;47068;55.780;37.520;2023-03-19T05:10:49;101168.50;;;0.33;45.30
61205;BME280;47068;55.780;37.520;2023-03-19T05:13:15;101146.28;;;0.21;44.95
61205;BME280;47068;55.780;37.520;2023-03-19T05:15:42;101156.44;;;0.29;45.33
61205;BME280;47068;55.780;37.520;2023-03-19T05:18:14;101140.88;;;0.26;45.41
61205;BME280;47068;55.780;37.520;2023-03-19T05:20:40;101163.94;;;0.38;45.27
61205;BME280;47068;55.780;37.520;2023-03-19T05:23:06;101159.66;;;0.35;45.27
61205;BME280;47068;55.780;37.520;2023-03-19T05:25:33;101089.63;;;0.00;45.50
61205;BME280;47068;55.780;37.520;2023-03-19T05:27:59;101155.03;;;0.42;45.33
61205;BME280;47068;55.780;37.520;2023-03-19T05:30:25;101145.94;;;0.51;45.55
61205;BME280;47068;55.780;37.520;2023-03-19T05:32:51;101153.84;;;1.10;44.96
61205;BME280;47068;55.780;37.520;2023-03-19T05:35:31;101141.69;;;2.70;41.99
61205;BME280;47068;55.780;37.520;2023-03-19T05:37:57;101130.84;;;4.05;39.58
61205;BME280;47068;55.780;37.520;2023-03-19T05:40:22;101130.91;;;5.76;35.97
61205;BME280;47068;55.780;37.520;2023-03-19T05:42:49;101119.59;;;7.31;32.57
61205;BME280;47068;55.780;37.520;2023-03-19T05:45:15;101116.88;;;8.40;31.06
61205;BME280;47068;55.780;37.520;2023-03-19T05:47:41;101108.72;;;8.54;30.33
61205;BME280;47068;55.780;37.520;2023-03-19T05:50:08;101108.06;;;9.53;29.08
61205;BME280;47068;55.780;37.520;2023-03-19T05:52:33;101105.38;;;10.50;27.19
61205;BME280;47068;55.780;37.520;2023-03-19T05:54:59;101097.31;;;11.92;25.27
61205;BME280;47068;55.780;37.520;2023-03-19T05:57:24;101106.75;;;13.00;23.89
61205;BME280;47068;55.780;37.520;2023-03-19T06:00:05;101087.75;;;14.48;21.61
61205;BME280;47068;55.780;37.520;2023-03-19T06:02:31;101089.13;;;15.64;21.33
61205;BME280;47068;55.780;37.520;2023-03-19T06:04:56;101068.09;;;16.34;20.40
61205;BME280;47068;55.780;37.520;2023-03-19T06:07:21;101078.56;;;17.16;18.73
61205;BME280;47068;55.780;37.520;2023-03-19T06:09:47;101077.66;;;18.10;18.32
61205;BME280;47068;55.780;37.520;2023-03-19T06:12:12;101069.59;;;19.58;17.20
61205;BME280;47068;55.780;37.520;2023-03-19T06:14:38;101053.28;;;20.24;15.98
61205;BME280;47068;55.780;37.520;2023-03-19T06:17:03;101060.06;;;21.18;15.82
61205;BME280;47068;55.780;37.520;2023-03-19T06:19:29;101059.41;;;21.16;14.79
61205;BME280;47068;55.780;37.520;2023-03-19T06:21:54;101049.81;;;22.28;14.08
61205;BME280;47068;55.780;37.520;2023-03-19T06:24:19;101052.56;;;21.61;14.14
61205;BME280;47068;55.780;37.520;2023-03-19T06:26:45;101044.41;;;21.13;14.04
61205;BME280;47068;55.780;37.520;2023-03-19T06:29:10;101055.50;;;21.73;14.13
61205;BME280;47068;55.780;37.520;2023-03-19T06:31:36;101039.59;;;22.44;13.28
61205;BME280;47068;55.780;37.520;2023-03-19T06:34:04;101032.50;;;23.46;12.92
61205;BME280;47068;55.780;37.520;2023-03-19T06:36:29;101037.50;;;25.00;11.70
61205;BME280;47068;55.780;37.520;2023-03-19T06:38:55;101034.16;;;22.04;12.86
61205;BME280;47068;55.780;37.520;2023-03-19T06:41:20;101033.13;;;22.05;13.49
61205;BME280;47068;55.780;37.520;2023-03-19T06:43:46;101001.00;;;22.42;13.15
61205;BME280;47068;55.780;37.520;2023-03-19T06:46:14;101018.16;;;21.55;13.45
61205;BME280;47068;55.780;37.520;2023-03-19T06:48:40;101030.97;;;20.64;14.43
61205;BME280;47068;55.780;37.520;2023-03-19T06:51:05;101027.28;;;20.01;15.31
61205;BME280;47068;55.780;37.520;2023-03-19T06:53:31;101032.78;;;17.71;16.75
61205;BME280;47068;55.780;37.520;2023-03-19T06:55:56;101042.56;;;16.78;17.79
61205;BME280;47068;55.780;37.520;2023-03-19T06:58:22;101035.53;;;15.04;19.07
61205;BME280;47068;55.780;37.520;2023-03-19T07:00:47;101034.25;;;15.16;19.10
61205;BME280;47068;55.780;37.520;2023-03-19T07:03:13;101022.94;;;16.05;18.25
61205;BME280;47068;55.780;37.520;2023-03-19T07:05:38;101024.06;;;17.69;16.92
61205;BME280;47068;55.780;37.520;2023-03-19T07:08:04;100992.22;;;19.15;15.50
61205;BME280;47068;55.780;37.520;2023-03-19T07:10:36;101014.91;;;21.25;13.73
61205;BME280;47068;55.780;37.520;2023-03-19T07:13:02;101008.06;;;22.56;13.31
61205;BME280;47068;55.780;37.520;2023-03-19T07:15:27;100988.66;;;23.49;12.57
61205;BME280;47068;55.780;37.520;2023-03-19T07:17:53;100998.66;;;24.68;11.74
61205;BME280;47068;55.780;37.520;2023-03-19T07:20:18;100985.91;;;25.23;11.29
61205;BME280;47068;55.780;37.520;2023-03-19T07:22:44;101000.53;;;24.86;10.96
61205;BME280;47068;55.780;37.520;2023-03-19T07:25:09;100983.06;;;22.47;12.55
61205;BME280;47068;55.780;37.520;2023-03-19T07:27:35;100988.06;;;21.97;12.79
61205;BME280;47068;55.780;37.520;2023-03-19T07:30:00;100986.72;;;24.44;11.49
61205;BME280;47068;55.780;37.520;2023-03-19T07:32:26;100971.34;;;26.65;10.60
61205;BME280;47068;55.780;37.520;2023-03-19T07:34:51;100973.75;;;27.65;9.93
61205;BME280;47068;55.780;37.520;2023-03-19T07:37:17;100975.94;;;26.77;9.99
61205;BME280;47068;55.780;37.520;2023-03-19T07:39:42;100982.34;;;27.17;9.67
61205;BME280;47068;55.780;37.520;2023-03-19T07:42:08;100963.13;;;29.29;8.79
61205;BME280;47068;55.780;37.520;2023-03-19T07:44:33;100981.69;;;30.67;7.69
61205;BME280;47068;55.780;37.520;2023-03-19T07:46:59;100979.19;;;31.12;7.93
61205;BME280;47068;55.780;37.520;2023-03-19T07:49:24;100967.88;;;26.70;9.02
61205;BME280;47068;55.780;37.520;2023-03-19T07:51:50;100937.50;;;26.90;9.76
61205;BME280;47068;55.780;37.520;2023-03-19T07:54:16;100975.25;;;26.81;9.46
61205;BME280;47068;55.780;37.520;2023-03-19T07:56:42;100974.25;;;25.16;10.65
61205;BME280;47068;55.780;37.520;2023-03-19T07:59:07;100963.75;;;26.56;10.09
61205;BME280;47068;55.780;37.520;2023-03-19T08:01:33;100947.59;;;26.43;10.21
61205;BME280;47068;55.780;37.520;2023-03-19T08:03:59;100967.06;;;25.03;10.82
61205;BME280;47068;55.780;37.520;2023-03-19T08:06:25;100952.94;;;22.95;12.08
61205;BME280;47068;55.780;37.520;2023-03-19T08:08:50;100956.03;;;19.60;14.21
61205;BME280;47068;55.780;37.520;2023-03-19T08:11:16;100957.38;;;18.17;15.26
61205;BME280;47068;55.780;37.520;2023-03-19T08:13:41;100919.44;;;16.74;16.71
61205;BME280;47068;55.780;37.520;2023-03-19T08:16:07;100957.53;;;14.81;18.77
61205;BME280;47068;55.780;37.520;2023-03-19T08:18:33;100948.19;;;13.82;19.95
61205;BME280;47068;55.780;37.520;2023-03-19T08:20:58;100942.53;;;13.05;21.43
61205;BME280;47068;55.780;37.520;2023-03-19T08:23:24;100947.69;;;11.86;22.37
61205;BME280;47068;55.780;37.520;2023-03-19T08:25:49;100931.59;;;10.99;23.42
61205;BME280;47068;55.780;37.520;2023-03-19T08:28:18;100941.00;;;10.63;24.51
61205;BME280;47068;55.780;37.520;2023-03-19T08:30:44;100939.09;;;10.03;25.16
61205;BME280;47068;55.780;37.520;2023-03-19T08:33:10;100923.91;;;9.09;26.30
61205;BME280;47068;55.780;37.520;2023-03-19T08:35:35;100942.94;;;8.49;27.72
61205;BME280;47068;55.780;37.520;2023-03-19T08:38:01;100955.44;;;7.89;27.88
61205;BME280;47068;55.780;37.520;2023-03-19T08:40:26;100910.69;;;7.63;29.04
61205;BME280;47068;55.780;37.520;2023-03-19T08:42:52;100872.72;;;6.43;31.15
61205;BME280;47068;55.780;37.520;2023-03-19T08:45:18;100747.91;;;5.40;31.42
61205;BME280;47068;55.780;37.520;2023-03-19T08:47:44;100925.94;;;6.26;31.64
61205;BME280;47068;55.780;37.520;2023-03-19T08:50:10;100928.19;;;6.19;32.42
61205;BME280;47068;55.780;37.520;2023-03-19T08:52:36;100925.00;;;6.27;33.04
61205;BME280;47068;55.780;37.520;2023-03-19T08:55:02;100911.28;;;6.22;31.88
61205;BME280;47068;55.780;37.520;2023-03-19T08:57:29;100884.41;;;5.90;32.83
61205;BME280;47068;55.780;37.520;2023-03-19T08:59:55;100900.03;;;5.80;33.38
61205;BME280;47068;55.780;37.520;2023-03-19T09:02:20;100892.19;;;5.79;34.14
61205;BME280;47068;55.780;37.520;2023-03-19T09:04:46;100893.84;;;5.67;34.18
61205;BME280;47068;55.780;37.520;2023-03-19T09:07:11;100902.41;;;5.58;34.46
61205;BME280;47068;55.780;37.520;2023-03-19T09:09:40;100876.72;;;5.60;34.67
61205;BME280;47068;55.780;37.520;2023-03-19T09:12:06;100886.41;;;5.34;35.92
61205;BME280;47068;55.780;37.520;2023-03-19T09:14:33;100850.81;;;4.88;36.40
61205;BME280;47068;55.780;37.520;2023-03-19T09:16:58;100886.25;;;4.84;36.99
61205;BME280;47068;55.780;37.520;2023-03-19T09:19:23;100884.09;;;4.76;37.22
61205;BME280;47068;55.780;37.520;2023-03-19T09:21:49;100859.16;;;4.67;37.25
61205;BME280;47068;55.780;37.520;2023-03-19T09:24:15;100880.41;;;5.05;37.21
61205;BME280;47068;55.780;37.520;2023-03-19T09:26:40;100883.94;;;5.19;36.52
61205;BME280;47068;55.780;37.520;2023-03-19T09:29:06;100837.56;;;4.75;37.38
61205;BME280;47068;55.780;37.520;2023-03-19T09:31:32;100884.31;;;5.12;36.51
61205;BME280;47068;55.780;37.520;2023-03-19T09:33:57;100861.25;;;5.16;37.32
61205;BME280;47068;55.780;37.520;2023-03-19T09:36:25;100886.66;;;5.44;36.60
61205;BME280;47068;55.780;37.520;2023-03-19T09:38:51;100864.59;;;5.45;36.75
61205;BME280;47068;55.780;37.520;2023-03-19T09:44:28;100882.25;;;4.91;37.52
61205;BME280;47068;55.780;37.520;2023-03-19T09:49:49;100747.25;;;4.59;37.93
61205;BME280;47068;55.780;37.520;2023-03-19T09:57:53;100858.06;;;5.50;37.11
61205;BME280;47068;55.780;37.520;2023-03-19T10:02:45;100714.09;;;4.82;37.18
61205;BME280;47068;55.780;37.520;2023-03-19T10:06:03;100868.78;;;6.00;38.05
61205;BME280;47068;55.780;37.520;2023-03-19T10:11:19;100860.72;;;6.26;36.52
61205;BME280;47068;55.780;37.520;2023-03-19T10:16:37;100533.88;;;3.92;36.40
61205;BME280;47068;55.780;37.520;2023-03-19T10:19:04;100840.00;;;6.33;35.99
61205;BME280;47068;55.780;37.520;2023-03-19T10:21:37;100849.94;;;6.42;37.04
61205;BME280;47068;55.780;37.520;2023-03-19T10:26:47;100837.84;;;6.38;37.58
61205;BME280;47068;55.780;37.520;2023-03-19T10:29:26;100802.81;;;6.11;36.84
61205;BME280;47068;55.780;37.520;2023-03-19T10:34:41;100840.47;;;6.14;36.68
61205;BME280;47068;55.780;37.520;2023-03-19T10:37:14;100836.44;;;6.09;36.96
61205;BME280;47068;55.780;37.520;2023-03-19T10:39:42;100833.13;;;6.18;36.55
61205;BME280;47068;55.780;37.520;2023-03-19T10:47:45;100845.19;;;5.59;37.41
61205;BME280;47068;55.780;37.520;2023-03-19T10:50:47;100817.84;;;5.60;37.21
61205;BME280;47068;55.780;37.520;2023-03-19T10:55:49;100812.34;;;5.63;37.86
61205;BME280;47068;55.780;37.520;2023-03-19T10:58:17;100812.84;;;5.42;38.25
61205;BME280;47068;55.780;37.520;2023-03-19T11:00:48;100770.38;;;5.07;38.50
61205;BME280;47068;55.780;37.520;2023-03-19T11:03:35;100807.47;;;5.44;38.23
61205;BME280;47068;55.780;37.520;2023-03-19T11:08:38;100795.97;;;5.70;38.71
61205;BME280;47068;55.780;37.520;2023-03-19T11:11:03;100783.41;;;5.86;38.82
61205;BME280;47068;55.780;37.520;2023-03-19T11:13:29;100767.34;;;5.89;38.06
61205;BME280;47068;55.780;37.520;2023-03-19T11:15:59;100793.84;;;6.13;37.45
61205;BME280;47068;55.780;37.520;2023-03-19T11:18:30;100795.00;;;6.22;37.21
61205;BME280;47068;55.780;37.520;2023-03-19T11:21:07;100754.25;;;6.01;37.07
61205;BME280;47068;55.780;37.520;2023-03-19T11:23:51;100782.75;;;5.96;37.29
61205;BME280;47068;55.780;37.520;2023-03-19T11:26:18;100786.16;;;5.98;37.21
61205;BME280;47068;55.780;37.520;2023-03-19T11:28:49;100782.03;;;6.06;37.30
61205;BME280;47068;55.780;37.520;2023-03-19T11:31:33;100772.41;;;6.05;37.44
61205;BME280;47068;55.780;37.520;2023-03-19T11:34:11;100780.44;;;6.04;37.25
61205;BME280;47068;55.780;37.520;2023-03-19T11:39:26;100776.19;;;6.14;37.48
61205;BME280;47068;55.780;37.520;2023-03-19T11:47:39;100765.63;;;6.14;38.31
61205;BME280;47068;55.780;37.520;2023-03-19T11:53:12;100757.72;;;6.38;38.78
61205;BME280;47068;55.780;37.520;2023-03-19T11:56:19;100757.97;;;6.35;37.95
61205;BME280;47068;55.780;37.520;2023-03-19T12:07:17;100739.34;;;6.00;39.44
61205;BME280;47068;55.780;37.520;2023-03-19T12:15:30;100690.28;;;5.59;38.70
61205;BME280;47068;55.780;37.520;2023-03-19T12:21:35;100712.25;;;6.09;38.68
61205;BME280;47068;55.780;37.520;2023-03-19T12:26:31;100707.19;;;6.42;37.54
61205;BME280;47068;55.780;37.520;2023-03-19T12:29:16;100705.38;;;6.43;37.88
61205;BME280;47068;55.780;37.520;2023-03-19T12:34:33;100696.84;;;6.50;37.98
61205;BME280;47068;55.780;37.520;2023-03-19T12:37:29;100687.66;;;6.56;38.36
61205;BME280;47068;55.780;37.520;2023-03-19T12:40:33;100686.34;;;6.61;37.72
61205;BME280;47068;55.780;37.520;2023-03-19T12:42:58;100682.13;;;6.59;38.00
61205;BME280;47068;55.780;37.520;2023-03-19T12:45:37;100683.63;;;6.50;38.37
61205;BME280;47068;55.780;37.520;2023-03-19T12:48:20;100675.00;;;6.48;39.32
61205;BME280;47068;55.780;37.520;2023-03-19T12:50:50;100671.81;;;6.43;39.00
61205;BME280;47068;55.780;37.520;2023-03-19T12:53:42;100673.53;;;6.44;38.76
61205;BME280;47068;55.780;37.520;2023-03-19T12:56:22;100664.31;;;6.50;39.08
61205;BME280;47068;55.780;37.520;2023-03-19T12:59:07;100668.03;;;6.58;39.58
61205;BME280;47068;55.780;37.520;2023-03-19T13:01:43;100658.59;;;6.67;39.03
61205;BME280;47068;55.780;37.520;2023-03-19T13:04:17;100606.94;;;6.39;39.02
61205;BME280;47068;55.780;37.520;2023-03-19T13:06:51;100649.34;;;6.72;38.98
61205;BME280;47068;55.780;37.520;2023-03-19T13:09:27;100657.06;;;6.76;38.32
61205;BME280;47068;55.780;37.520;2023-03-19T13:12:00;100657.16;;;6.74;38.48
61205;BME280;47068;55.780;37.520;2023-03-19T13:14:37;100654.22;;;6.55;38.91
61205;BME280;47068;55.780;37.520;2023-03-19T13:17:17;100647.25;;;6.54;38.46
61205;BME280;47068;55.780;37.520;2023-03-19T13:19:51;100647.38;;;6.52;39.15
61205;BME280;47068;55.780;37.520;2023-03-19T13:22:31;100621.13;;;6.38;38.87
61205;BME280;47068;55.780;37.520;2023-03-19T13:24:59;100650.47;;;6.46;38.41
61205;BME280;47068;55.780;37.520;2023-03-19T13:27:30;100643.53;;;6.56;38.75
61205;BME280;47068;55.780;37.520;2023-03-19T13:32:48;100636.47;;;6.57;38.58
61205;BME280;47068;55.780;37.520;2023-03-19T13:46:02;100633.06;;;6.55;39.48
61205;BME280;47068;55.780;37.520;2023-03-19T13:51:01;100623.88;;;6.37;38.00
61205;BME280;47068;55.780;37.520;2023-03-19T13:55:57;100548.91;;;5.79;38.15
61205;BME280;47068;55.780;37.520;2023-03-19T13:59:17;100578.81;;;6.03;37.69
61205;BME280;47068;55.780;37.520;2023-03-19T14:03:59;100613.16;;;6.27;37.69
61205;BME280;47068;55.780;37.520;2023-03-19T14:06:39;100613.59;;;6.21;37.77
61205;BME280;47068;55.780;37.520;2023-03-19T14:09:26;100529.28;;;5.70;38.09
61205;BME280;47068;55.780;37.520;2023-03-19T14:11:53;100597.97;;;6.18;38.02
61205;BME280;47068;55.780;37.520;2023-03-19T14:14:21;100605.41;;;6.13;38.56
61205;BME280;47068;55.780;37.520;2023-03-19T14:16:50;100595.06;;;6.10;39.32
61205;BME280;47068;55.780;37.520;2023-03-19T14:19:19;100597.19;;;6.05;38.65
61205;BME280;47068;55.780;37.520;2023-03-19T14:22:07;100383.19;;;4.76;39.47
61205;BME280;47068;55.780;37.520;2023-03-19T14:24:39;100595.97;;;5.98;39.89